Lovilia, Iowa
Current Conditions -  °F | °C
As of 10:15 AM on Thursday 27 Nov 2014 (Local Time) from KOXV Reporting Station
Clear Clear  
Wind Chill: -6°   Ceiling: Unl
Heat Index:   Visibility: 10mi
Dew Point: -4°   Wind: 8mph
Humidity: 61%   Direction: 300°WNW
Pressure: 30.52"   Gusts: NA
Location:  41.14°N, 92.9°W
Report Text: KOXV 271615Z AUTO 30007KT 10SM CLR M14/M20 A3052 RMK AO2
Loading
Personal Weather Stations






























Interactive Weather Map New forecast layout! Learn more

10-Day Weather Forecast

Advertisements
Track Severe Weather on mobile